Terminal Aerodrome Forecast
Issued by NWS

Home | Current Version | Previous Version | Text Only | Print | Product List | Glossary On
Versions: 1 2 3 4 5 6 7 8 9 10 11 12 13 14
000
FTUS42 TJSJ 261720
TAFJBQ
TAF
TJBQ 261720Z 2618/2718 16006KT P6SM VCTS SCT030CB SCT050
      TEMPO 2618/2620 4SM -TSRA SCT025CB BKN040 BKN070
     FM262300 10006KT P6SM FEW025 SCT030 SCT090
     FM271300 08012KT P6SM SCT025 BKN050
     FM271600 08012G17KT P6SM SCT025 BKN050=

USA.gov is the U.S. government's official web portal to all federal, state and local government web resources and services.